sensor_id;sensor_type;location;lat;lon;timestamp;P1;durP1;ratioP1;P2;durP2;ratioP2
51515;SDS011;37603;55.614;37.326;2023-06-14T00:01:06;10.8;;;6.6;;
51515;SDS011;37603;55.614;37.326;2023-06-14T00:07:05;12.9;;;6.6;;
51515;SDS011;37603;55.614;37.326;2023-06-14T00:13:05;10.7;;;6.4;;
51515;SDS011;37603;55.614;37.326;2023-06-14T00:19:04;14.3;;;6.4;;
51515;SDS011;37603;55.614;37.326;2023-06-14T00:25:03;12.9;;;6.6;;
51515;SDS011;37603;55.614;37.326;2023-06-14T00:31:02;12.7;;;6.8;;
51515;SDS011;37603;55.614;37.326;2023-06-14T00:37:01;14.2;;;6.5;;
51515;SDS011;37603;55.614;37.326;2023-06-14T00:43:01;13.5;;;6.8;;
51515;SDS011;37603;55.614;37.326;2023-06-14T00:49:00;11.3;;;6.7;;
51515;SDS011;37603;55.614;37.326;2023-06-14T00:54:59;16.6;;;7.6;;
51515;SDS011;37603;55.614;37.326;2023-06-14T01:00:58;12.5;;;6.5;;
51515;SDS011;37603;55.614;37.326;2023-06-14T01:06:58;12.2;;;6.5;;
51515;SDS011;37603;55.614;37.326;2023-06-14T01:12:57;15.7;;;7.1;;
51515;SDS011;37603;55.614;37.326;2023-06-14T01:18:55;10.5;;;6.8;;
51515;SDS011;37603;55.614;37.326;2023-06-14T01:24:55;12.5;;;7.0;;
51515;SDS011;37603;55.614;37.326;2023-06-14T01:30:54;14.7;;;6.9;;
51515;SDS011;37603;55.614;37.326;2023-06-14T01:36:53;13.3;;;6.9;;
51515;SDS011;37603;55.614;37.326;2023-06-14T01:42:52;12.8;;;7.4;;
51515;SDS011;37603;55.614;37.326;2023-06-14T01:48:51;11.7;;;6.8;;
51515;SDS011;37603;55.614;37.326;2023-06-14T01:54:50;11.8;;;6.3;;
51515;SDS011;37603;55.614;37.326;2023-06-14T02:00:49;10.7;;;6.9;;
51515;SDS011;37603;55.614;37.326;2023-06-14T02:06:49;11.0;;;6.7;;
51515;SDS011;37603;55.614;37.326;2023-06-14T02:12:48;12.3;;;7.0;;
51515;SDS011;37603;55.614;37.326;2023-06-14T02:18:47;12.9;;;7.3;;
51515;SDS011;37603;55.614;37.326;2023-06-14T02:24:46;13.1;;;7.1;;
51515;SDS011;37603;55.614;37.326;2023-06-14T02:30:45;12.9;;;6.7;;
51515;SDS011;37603;55.614;37.326;2023-06-14T02:36:44;10.1;;;6.7;;
51515;SDS011;37603;55.614;37.326;2023-06-14T02:42:45;13.5;;;6.8;;
51515;SDS011;37603;55.614;37.326;2023-06-14T02:48:43;11.2;;;6.8;;
51515;SDS011;37603;55.614;37.326;2023-06-14T02:54:42;13.1;;;7.4;;
51515;SDS011;37603;55.614;37.326;2023-06-14T03:00:41;13.4;;;7.0;;
51515;SDS011;37603;55.614;37.326;2023-06-14T03:06:41;11.9;;;6.8;;
51515;SDS011;37603;55.614;37.326;2023-06-14T03:12:40;11.5;;;6.6;;
51515;SDS011;37603;55.614;37.326;2023-06-14T03:18:39;11.3;;;6.1;;
51515;SDS011;37603;55.614;37.326;2023-06-14T03:24:38;9.2;;;6.0;;
51515;SDS011;37603;55.614;37.326;2023-06-14T03:30:37;10.9;;;5.6;;
51515;SDS011;37603;55.614;37.326;2023-06-14T03:36:37;11.5;;;6.3;;
51515;SDS011;37603;55.614;37.326;2023-06-14T03:42:36;11.9;;;6.2;;
51515;SDS011;37603;55.614;37.326;2023-06-14T03:48:35;14.4;;;6.9;;
51515;SDS011;37603;55.614;37.326;2023-06-14T03:54:34;16.9;;;6.8;;
51515;SDS011;37603;55.614;37.326;2023-06-14T04:00:34;14.0;;;6.5;;
51515;SDS011;37603;55.614;37.326;2023-06-14T04:06:33;16.4;;;6.7;;
51515;SDS011;37603;55.614;37.326;2023-06-14T04:12:32;16.8;;;6.3;;
51515;SDS011;37603;55.614;37.326;2023-06-14T04:18:32;12.3;;;5.6;;
51515;SDS011;37603;55.614;37.326;2023-06-14T04:24:31;13.0;;;5.9;;
51515;SDS011;37603;55.614;37.326;2023-06-14T04:30:30;12.2;;;5.4;;
51515;SDS011;37603;55.614;37.326;2023-06-14T04:36:30;10.3;;;5.6;;
51515;SDS011;37603;55.614;37.326;2023-06-14T04:42:29;12.7;;;5.5;;
51515;SDS011;37603;55.614;37.326;2023-06-14T04:48:29;11.8;;;5.4;;
51515;SDS011;37603;55.614;37.326;2023-06-14T04:54:28;12.8;;;6.1;;
51515;SDS011;37603;55.614;37.326;2023-06-14T05:00:28;12.3;;;5.4;;
51515;SDS011;37603;55.614;37.326;2023-06-14T05:06:28;14.3;;;5.6;;
51515;SDS011;37603;55.614;37.326;2023-06-14T05:12:27;14.1;;;5.7;;
51515;SDS011;37603;55.614;37.326;2023-06-14T05:18:27;11.6;;;5.7;;
51515;SDS011;37603;55.614;37.326;2023-06-14T05:24:27;9.4;;;5.3;;
51515;SDS011;37603;55.614;37.326;2023-06-14T05:30:32;14.4;;;4.7;;
51515;SDS011;37603;55.614;37.326;2023-06-14T05:36:26;12.3;;;4.9;;
51515;SDS011;37603;55.614;37.326;2023-06-14T05:42:26;9.4;;;4.2;;
51515;SDS011;37603;55.614;37.326;2023-06-14T05:48:26;11.1;;;4.3;;
51515;SDS011;37603;55.614;37.326;2023-06-14T05:54:25;8.6;;;3.4;;
51515;SDS011;37603;55.614;37.326;2023-06-14T06:00:25;8.7;;;4.1;;
51515;SDS011;37603;55.614;37.326;2023-06-14T06:06:25;8.4;;;3.7;;
51515;SDS011;37603;55.614;37.326;2023-06-14T06:12:25;8.5;;;3.3;;
51515;SDS011;37603;55.614;37.326;2023-06-14T06:18:25;4.0;;;2.7;;
51515;SDS011;37603;55.614;37.326;2023-06-14T06:24:25;8.3;;;2.3;;
51515;SDS011;37603;55.614;37.326;2023-06-14T06:30:25;4.9;;;2.5;;
51515;SDS011;37603;55.614;37.326;2023-06-14T06:36:25;6.3;;;2.9;;
51515;SDS011;37603;55.614;37.326;2023-06-14T06:42:25;7.6;;;3.2;;
51515;SDS011;37603;55.614;37.326;2023-06-14T08:24:25;6.5;;;2.8;;
51515;SDS011;37603;55.614;37.326;2023-06-14T11:42:26;5.9;;;3.0;;
51515;SDS011;37603;55.614;37.326;2023-06-14T11:48:35;5.4;;;3.0;;
51515;SDS011;37603;55.614;37.326;2023-06-14T11:54:26;5.8;;;2.8;;
51515;SDS011;37603;55.614;37.326;2023-06-14T12:00:26;7.4;;;2.9;;
51515;SDS011;37603;55.614;37.326;2023-06-14T12:06:26;5.6;;;2.8;;
51515;SDS011;37603;55.614;37.326;2023-06-14T12:18:34;4.9;;;3.3;;
51515;SDS011;37603;55.614;37.326;2023-06-14T12:24:27;6.3;;;3.0;;
51515;SDS011;37603;55.614;37.326;2023-06-14T12:30:26;8.5;;;3.3;;
51515;SDS011;37603;55.614;37.326;2023-06-14T12:36:26;5.0;;;2.9;;
51515;SDS011;37603;55.614;37.326;2023-06-14T12:42:26;4.2;;;3.1;;
51515;SDS011;37603;55.614;37.326;2023-06-14T12:48:26;5.8;;;3.0;;
51515;SDS011;37603;55.614;37.326;2023-06-14T12:54:26;6.9;;;3.3;;
51515;SDS011;37603;55.614;37.326;2023-06-14T13:00:26;6.2;;;3.2;;
51515;SDS011;37603;55.614;37.326;2023-06-14T13:06:26;6.5;;;3.4;;
51515;SDS011;37603;55.614;37.326;2023-06-14T13:12:27;12.5;;;3.3;;
51515;SDS011;37603;55.614;37.326;2023-06-14T13:18:27;7.0;;;2.9;;
51515;SDS011;37603;55.614;37.326;2023-06-14T13:24:27;6.9;;;3.3;;
51515;SDS011;37603;55.614;37.326;2023-06-14T13:30:26;7.5;;;3.2;;
51515;SDS011;37603;55.614;37.326;2023-06-14T13:36:26;6.9;;;3.0;;
51515;SDS011;37603;55.614;37.326;2023-06-14T13:42:27;6.5;;;2.9;;
51515;SDS011;37603;55.614;37.326;2023-06-14T13:48:26;8.0;;;3.3;;
51515;SDS011;37603;55.614;37.326;2023-06-14T13:54:26;7.4;;;3.0;;
51515;SDS011;37603;55.614;37.326;2023-06-14T14:00:27;5.5;;;3.2;;
51515;SDS011;37603;55.614;37.326;2023-06-14T14:06:26;6.3;;;3.1;;
51515;SDS011;37603;55.614;37.326;2023-06-14T14:12:26;5.9;;;2.9;;
51515;SDS011;37603;55.614;37.326;2023-06-14T14:18:26;6.2;;;2.9;;
51515;SDS011;37603;55.614;37.326;2023-06-14T14:24:26;7.7;;;2.9;;
51515;SDS011;37603;55.614;37.326;2023-06-14T14:36:27;5.9;;;3.2;;
51515;SDS011;37603;55.614;37.326;2023-06-14T14:48:26;6.5;;;3.0;;
51515;SDS011;37603;55.614;37.326;2023-06-14T14:54:26;9.3;;;3.0;;
51515;SDS011;37603;55.614;37.326;2023-06-14T15:00:26;6.4;;;3.0;;
51515;SDS011;37603;55.614;37.326;2023-06-14T15:06:26;5.9;;;3.0;;
51515;SDS011;37603;55.614;37.326;2023-06-14T15:12:26;4.0;;;2.8;;
51515;SDS011;37603;55.614;37.326;2023-06-14T15:18:26;4.3;;;2.7;;
51515;SDS011;37603;55.614;37.326;2023-06-14T15:24:27;6.6;;;3.2;;
51515;SDS011;37603;55.614;37.326;2023-06-14T15:30:26;5.1;;;2.9;;
51515;SDS011;37603;55.614;37.326;2023-06-14T15:36:27;6.9;;;2.9;;
51515;SDS011;37603;55.614;37.326;2023-06-14T15:42:27;5.4;;;2.7;;
51515;SDS011;37603;55.614;37.326;2023-06-14T15:48:27;5.7;;;2.7;;
51515;SDS011;37603;55.614;37.326;2023-06-14T15:54:27;5.6;;;2.8;;
51515;SDS011;37603;55.614;37.326;2023-06-14T16:00:27;4.2;;;2.9;;
51515;SDS011;37603;55.614;37.326;2023-06-14T16:06:27;5.7;;;2.5;;
51515;SDS011;37603;55.614;37.326;2023-06-14T16:12:27;5.3;;;2.7;;
51515;SDS011;37603;55.614;37.326;2023-06-14T16:18:26;8.6;;;2.9;;
51515;SDS011;37603;55.614;37.326;2023-06-14T16:24:26;6.0;;;2.7;;
51515;SDS011;37603;55.614;37.326;2023-06-14T16:30:26;3.8;;;2.7;;
51515;SDS011;37603;55.614;37.326;2023-06-14T16:36:26;7.2;;;2.7;;
51515;SDS011;37603;55.614;37.326;2023-06-14T16:42:26;5.2;;;2.7;;
51515;SDS011;37603;55.614;37.326;2023-06-14T16:48:26;5.7;;;2.8;;
51515;SDS011;37603;55.614;37.326;2023-06-14T17:00:26;8.1;;;2.7;;
51515;SDS011;37603;55.614;37.326;2023-06-14T17:06:26;5.9;;;3.0;;
51515;SDS011;37603;55.614;37.326;2023-06-14T17:12:26;5.5;;;3.5;;
51515;SDS011;37603;55.614;37.326;2023-06-14T17:18:26;5.8;;;4.8;;
51515;SDS011;37603;55.614;37.326;2023-06-14T17:30:25;6.2;;;3.4;;
51515;SDS011;37603;55.614;37.326;2023-06-14T17:36:25;7.3;;;3.3;;
51515;SDS011;37603;55.614;37.326;2023-06-14T17:42:25;6.1;;;3.3;;
51515;SDS011;37603;55.614;37.326;2023-06-14T17:48:25;7.5;;;3.7;;
51515;SDS011;37603;55.614;37.326;2023-06-14T17:54:25;6.7;;;3.8;;
51515;SDS011;37603;55.614;37.326;2023-06-14T18:00:25;6.5;;;3.5;;
51515;SDS011;37603;55.614;37.326;2023-06-14T18:06:24;7.9;;;3.9;;
51515;SDS011;37603;55.614;37.326;2023-06-14T18:12:24;4.4;;;3.5;;
51515;SDS011;37603;55.614;37.326;2023-06-14T18:18:24;5.8;;;3.5;;
51515;SDS011;37603;55.614;37.326;2023-06-14T18:30:23;19.5;;;4.7;;
51515;SDS011;37603;55.614;37.326;2023-06-14T18:36:23;13.3;;;4.0;;
51515;SDS011;37603;55.614;37.326;2023-06-14T18:42:22;10.4;;;3.7;;
51515;SDS011;37603;55.614;37.326;2023-06-14T18:48:22;6.1;;;3.5;;
51515;SDS011;37603;55.614;37.326;2023-06-14T18:54:22;5.9;;;3.6;;
51515;SDS011;37603;55.614;37.326;2023-06-14T19:06:21;9.9;;;3.5;;
51515;SDS011;37603;55.614;37.326;2023-06-14T19:12:21;9.7;;;3.6;;
51515;SDS011;37603;55.614;37.326;2023-06-14T19:18:20;6.3;;;3.3;;
51515;SDS011;37603;55.614;37.326;2023-06-14T19:24:20;8.8;;;3.7;;
51515;SDS011;37603;55.614;37.326;2023-06-14T19:30:19;7.4;;;3.6;;
51515;SDS011;37603;55.614;37.326;2023-06-14T19:36:19;6.9;;;3.3;;
51515;SDS011;37603;55.614;37.326;2023-06-14T19:42:18;7.2;;;3.8;;
51515;SDS011;37603;55.614;37.326;2023-06-14T19:48:18;6.0;;;3.5;;
51515;SDS011;37603;55.614;37.326;2023-06-14T19:54:17;6.7;;;3.6;;
51515;SDS011;37603;55.614;37.326;2023-06-14T20:06:17;7.7;;;3.7;;
51515;SDS011;37603;55.614;37.326;2023-06-14T20:12:16;5.2;;;3.4;;
51515;SDS011;37603;55.614;37.326;2023-06-14T20:18:16;7.8;;;4.1;;
51515;SDS011;37603;55.614;37.326;2023-06-14T20:24:15;8.1;;;3.7;;
51515;SDS011;37603;55.614;37.326;2023-06-14T20:30:15;7.4;;;4.0;;
51515;SDS011;37603;55.614;37.326;2023-06-14T20:36:14;7.8;;;4.3;;
51515;SDS011;37603;55.614;37.326;2023-06-14T20:42:14;8.3;;;3.8;;
51515;SDS011;37603;55.614;37.326;2023-06-14T20:48:13;7.6;;;3.8;;
51515;SDS011;37603;55.614;37.326;2023-06-14T20:54:13;9.4;;;3.9;;
51515;SDS011;37603;55.614;37.326;2023-06-14T21:00:13;8.6;;;4.0;;
51515;SDS011;37603;55.614;37.326;2023-06-14T21:06:12;9.0;;;4.1;;
51515;SDS011;37603;55.614;37.326;2023-06-14T21:12:11;8.4;;;4.4;;
51515;SDS011;37603;55.614;37.326;2023-06-14T21:18:11;7.8;;;4.4;;
51515;SDS011;37603;55.614;37.326;2023-06-14T21:24:10;6.9;;;4.3;;
51515;SDS011;37603;55.614;37.326;2023-06-14T21:30:13;8.6;;;4.5;;
51515;SDS011;37603;55.614;37.326;2023-06-14T21:36:09;7.4;;;4.5;;
51515;SDS011;37603;55.614;37.326;2023-06-14T21:42:08;6.4;;;4.3;;
51515;SDS011;37603;55.614;37.326;2023-06-14T21:48:08;8.9;;;4.6;;
51515;SDS011;37603;55.614;37.326;2023-06-14T21:54:07;10.5;;;4.4;;
51515;SDS011;37603;55.614;37.326;2023-06-14T22:00:07;7.3;;;4.2;;
51515;SDS011;37603;55.614;37.326;2023-06-14T22:06:06;9.3;;;4.6;;
51515;SDS011;37603;55.614;37.326;2023-06-14T22:12:06;9.6;;;4.8;;
51515;SDS011;37603;55.614;37.326;2023-06-14T22:18:05;7.8;;;4.7;;
51515;SDS011;37603;55.614;37.326;2023-06-14T22:24:05;7.7;;;4.8;;
51515;SDS011;37603;55.614;37.326;2023-06-14T22:30:04;11.6;;;4.7;;
51515;SDS011;37603;55.614;37.326;2023-06-14T22:36:03;8.5;;;4.9;;
51515;SDS011;37603;55.614;37.326;2023-06-14T22:42:02;7.9;;;4.5;;
51515;SDS011;37603;55.614;37.326;2023-06-14T22:48:02;8.6;;;4.7;;
51515;SDS011;37603;55.614;37.326;2023-06-14T22:54:01;7.7;;;4.5;;
51515;SDS011;37603;55.614;37.326;2023-06-14T23:00:00;8.9;;;4.6;;
51515;SDS011;37603;55.614;37.326;2023-06-14T23:06:00;10.2;;;4.6;;
51515;SDS011;37603;55.614;37.326;2023-06-14T23:11:59;9.0;;;4.8;;
51515;SDS011;37603;55.614;37.326;2023-06-14T23:17:59;10.5;;;4.8;;
51515;SDS011;37603;55.614;37.326;2023-06-14T23:23:57;11.5;;;4.8;;
51515;SDS011;37603;55.614;37.326;2023-06-14T23:29:57;9.7;;;4.8;;
51515;SDS011;37603;55.614;37.326;2023-06-14T23:35:56;10.5;;;5.0;;
51515;SDS011;37603;55.614;37.326;2023-06-14T23:41:55;9.4;;;4.5;;
51515;SDS011;37603;55.614;37.326;2023-06-14T23:47:55;8.6;;;4.8;;
51515;SDS011;37603;55.614;37.326;2023-06-14T23:53:54;12.3;;;5.1;;
51515;SDS011;37603;55.614;37.326;2023-06-14T23:59:53;12.0;;;5.2;;
